createdAt,value
2017-09-20T00:01:14.302Z,15.90
2017-09-20T00:03:41.743Z,15.80
2017-09-20T00:06:09.188Z,15.80
2017-09-20T00:08:36.614Z,16.25
2017-09-20T00:11:04.118Z,14.68
2017-09-20T00:13:31.570Z,15.00
2017-09-20T00:15:59.029Z,15.55
2017-09-20T00:18:26.507Z,14.93
2017-09-20T00:20:53.942Z,14.48
2017-09-20T00:23:21.403Z,14.95
2017-09-20T00:25:48.858Z,13.80
2017-09-20T00:28:16.288Z,14.18
2017-09-20T00:30:43.870Z,14.87
2017-09-20T00:33:11.313Z,15.82
2017-09-20T00:35:38.895Z,15.25
2017-09-20T00:38:06.347Z,15.60
2017-09-20T00:40:33.859Z,15.38
2017-09-20T00:43:01.363Z,15.48
2017-09-20T00:45:28.807Z,14.52
2017-09-20T00:47:56.247Z,15.70
2017-09-20T00:50:23.698Z,16.40
2017-09-20T00:52:51.142Z,14.10
2017-09-20T00:55:18.579Z,15.63
2017-09-20T00:57:46.806Z,14.80
2017-09-20T01:00:14.255Z,16.12
2017-09-20T01:02:41.698Z,15.57
2017-09-20T01:05:09.176Z,15.32
2017-09-20T01:07:36.648Z,14.98
2017-09-20T01:10:04.091Z,17.57
2017-09-20T01:12:31.528Z,16.23
2017-09-20T01:14:59.000Z,15.60
2017-09-20T01:17:26.458Z,19.20
2017-09-20T01:19:53.938Z,34.10
2017-09-20T01:22:33.450Z,31.00
2017-09-20T01:25:01.011Z,19.73
2017-09-20T01:27:28.447Z,16.00
2017-09-20T01:29:55.883Z,14.15
2017-09-20T01:32:23.338Z,14.43
2017-09-20T01:34:50.849Z,14.55
2017-09-20T01:37:18.276Z,14.03
2017-09-20T01:39:45.766Z,14.02
2017-09-20T01:42:13.307Z,13.55
2017-09-20T01:44:40.747Z,12.48
2017-09-20T01:47:08.207Z,12.40
2017-09-20T01:49:35.643Z,13.30
2017-09-20T01:52:03.082Z,12.48
2017-09-20T01:54:31.303Z,12.82
2017-09-20T01:56:58.878Z,13.00
2017-09-20T01:59:26.315Z,12.00
2017-09-20T02:01:53.776Z,12.88
2017-09-20T02:04:21.214Z,10.93
2017-09-20T02:06:48.662Z,11.48
2017-09-20T02:09:16.099Z,14.65
2017-09-20T02:11:43.566Z,12.85
2017-09-20T02:14:11.000Z,12.07
2017-09-20T02:16:38.455Z,11.27
2017-09-20T02:19:06.663Z,12.65
2017-09-20T02:21:34.114Z,15.15
2017-09-20T02:24:01.595Z,11.70
2017-09-20T02:26:29.039Z,11.30
2017-09-20T02:28:56.494Z,11.38
2017-09-20T02:31:23.935Z,11.17
2017-09-20T02:33:51.418Z,11.80
2017-09-20T02:36:18.980Z,12.02
2017-09-20T02:38:46.433Z,11.52
2017-09-20T02:41:13.909Z,12.65
2017-09-20T02:43:41.355Z,12.05
2017-09-20T02:46:08.793Z,11.90
2017-09-20T02:48:36.266Z,12.68
2017-09-20T02:51:03.710Z,15.02
2017-09-20T02:53:31.154Z,12.70
2017-09-20T02:55:58.632Z,15.07
2017-09-20T02:58:26.066Z,12.50
2017-09-20T03:00:53.538Z,12.57
2017-09-20T03:03:20.992Z,12.50
2017-09-20T03:05:48.496Z,12.05
2017-09-20T03:08:16.749Z,11.55
2017-09-20T03:10:44.291Z,13.68
2017-09-20T03:13:11.727Z,10.88
2017-09-20T03:15:39.162Z,12.25
2017-09-20T03:18:06.634Z,12.23
2017-09-20T03:20:34.069Z,13.57
2017-09-20T03:23:02.282Z,11.53
2017-09-20T03:25:29.723Z,12.20
2017-09-20T03:27:57.159Z,11.82
2017-09-20T03:30:24.616Z,12.10
2017-09-20T03:32:52.045Z,10.50
2017-09-20T03:35:19.577Z,11.88
2017-09-20T03:37:46.998Z,9.90
2017-09-20T03:40:14.450Z,10.15
2017-09-20T03:42:41.892Z,12.00
2017-09-20T03:45:09.478Z,10.30
2017-09-20T03:47:36.898Z,10.00
2017-09-20T03:50:05.141Z,13.55
2017-09-20T03:52:32.567Z,9.77
2017-09-20T03:55:00.015Z,9.95
2017-09-20T03:57:27.486Z,9.85
2017-09-20T03:59:54.923Z,9.32
2017-09-20T04:02:22.410Z,9.45
2017-09-20T04:04:49.847Z,8.02
2017-09-20T04:07:17.296Z,7.28
2017-09-20T04:09:44.739Z,7.55
2017-09-20T04:12:12.182Z,7.30
2017-09-20T04:14:40.374Z,8.82
2017-09-20T04:17:07.854Z,8.70
2017-09-20T04:19:35.287Z,6.97
2017-09-20T04:22:02.774Z,6.60
2017-09-20T04:24:30.215Z,6.22
2017-09-20T04:26:57.662Z,6.37
2017-09-20T04:29:25.090Z,7.82
2017-09-20T04:31:53.322Z,6.15
2017-09-20T04:34:20.759Z,6.00
2017-09-20T04:36:48.209Z,7.03
2017-09-20T04:39:15.639Z,6.47
2017-09-20T04:41:43.849Z,6.03
2017-09-20T04:44:11.291Z,6.90
2017-09-20T04:46:38.727Z,7.03
2017-09-20T04:49:06.222Z,6.68
2017-09-20T04:51:33.663Z,6.70
2017-09-20T04:54:01.099Z,6.72
2017-09-20T04:56:28.531Z,6.70
2017-09-20T04:58:56.740Z,6.50
2017-09-20T05:01:24.184Z,7.37
2017-09-20T05:03:51.640Z,7.75
2017-09-20T05:06:19.146Z,6.47
2017-09-20T05:08:46.593Z,6.50
2017-09-20T05:11:14.048Z,9.98
2017-09-20T05:13:41.507Z,7.50
2017-09-20T05:16:08.963Z,7.30
2017-09-20T05:18:36.404Z,7.80
2017-09-20T05:21:03.833Z,7.55
2017-09-20T05:23:31.254Z,7.68
2017-09-20T05:25:58.798Z,8.30
2017-09-20T05:28:26.252Z,7.00
2017-09-20T05:30:54.243Z,9.60
2017-09-20T05:33:21.683Z,7.80
2017-09-20T05:35:49.235Z,8.07
2017-09-20T05:38:16.683Z,9.57
2017-09-20T05:40:44.143Z,8.10
2017-09-20T05:43:11.690Z,7.95
2017-09-20T05:45:39.159Z,12.45
2017-09-20T05:48:06.602Z,8.40
2017-09-20T05:50:34.046Z,8.25
2017-09-20T05:53:01.609Z,8.30
2017-09-20T05:55:29.084Z,8.77
2017-09-20T05:57:56.516Z,8.50
2017-09-20T06:00:23.944Z,8.68
2017-09-20T06:02:52.157Z,8.30
2017-09-20T06:05:19.592Z,9.10
2017-09-20T06:07:47.058Z,9.88
2017-09-20T06:10:14.470Z,8.40
2017-09-20T06:12:42.678Z,8.63
2017-09-20T06:15:10.111Z,8.07
2017-09-20T06:17:38.362Z,8.55
2017-09-20T06:20:05.798Z,7.45
2017-09-20T06:22:33.332Z,6.43
2017-09-20T06:25:00.771Z,6.75
2017-09-20T06:27:28.243Z,6.90
2017-09-20T06:29:55.687Z,7.40
2017-09-20T06:32:23.171Z,8.10
2017-09-20T06:34:50.626Z,6.95
2017-09-20T06:37:18.136Z,7.12
2017-09-20T06:39:46.478Z,6.18
2017-09-20T06:42:13.974Z,5.90
2017-09-20T06:44:41.513Z,8.63
2017-09-20T06:47:08.959Z,6.50
2017-09-20T06:49:37.848Z,7.60
2017-09-20T06:52:05.315Z,6.20
2017-09-20T06:54:32.971Z,5.45
2017-09-20T06:57:00.588Z,5.57
2017-09-20T06:59:27.997Z,6.50
2017-09-20T07:01:55.460Z,5.78
2017-09-20T07:04:23.690Z,5.60
2017-09-20T07:06:51.225Z,8.20
2017-09-20T07:09:18.900Z,5.15
2017-09-20T07:11:46.327Z,10.15
2017-09-20T07:14:13.791Z,7.05
2017-09-20T07:16:41.240Z,5.07
2017-09-20T07:19:08.671Z,5.97
2017-09-20T07:21:36.895Z,5.30
2017-09-20T07:24:04.368Z,4.75
2017-09-20T07:26:31.916Z,4.70
2017-09-20T07:28:59.347Z,5.10
2017-09-20T07:31:26.826Z,4.62
2017-09-20T07:33:54.274Z,6.10
2017-09-20T07:36:21.722Z,4.00
2017-09-20T07:38:49.187Z,4.90
2017-09-20T07:41:16.678Z,4.85
2017-09-20T07:43:44.147Z,5.82
2017-09-20T07:46:12.379Z,5.50
2017-09-20T07:48:39.834Z,4.75
2017-09-20T07:51:07.374Z,5.07
2017-09-20T07:53:34.855Z,8.68
2017-09-20T07:56:02.311Z,6.22
2017-09-20T07:58:29.844Z,6.50
2017-09-20T08:00:57.328Z,5.20
2017-09-20T08:03:24.810Z,5.70
2017-09-20T08:05:52.250Z,4.50
2017-09-20T08:08:19.691Z,6.62
2017-09-20T08:10:47.163Z,5.25
2017-09-20T08:13:14.603Z,3.35
2017-09-20T08:15:42.087Z,4.22
2017-09-20T08:18:09.511Z,3.28
2017-09-20T08:20:36.942Z,5.60
2017-09-20T08:23:04.394Z,4.55
2017-09-20T08:25:31.881Z,3.78
2017-09-20T08:27:59.323Z,4.30
2017-09-20T08:30:26.802Z,4.23
2017-09-20T08:32:54.341Z,3.40
2017-09-20T08:35:21.742Z,3.58
2017-09-20T08:37:49.969Z,2.75
2017-09-20T08:40:17.423Z,5.18
2017-09-20T08:42:44.887Z,3.00
2017-09-20T08:45:12.310Z,5.20
2017-09-20T08:47:40.802Z,3.28
2017-09-20T08:50:08.267Z,2.85
2017-09-20T08:52:35.790Z,3.62
2017-09-20T08:55:04.039Z,2.77
2017-09-20T08:57:31.477Z,3.17
2017-09-20T08:59:58.948Z,2.62
2017-09-20T09:02:26.408Z,3.40
2017-09-20T09:04:53.880Z,2.90
2017-09-20T09:07:21.323Z,4.12
2017-09-20T09:09:48.885Z,3.47
2017-09-20T09:12:16.337Z,4.07
2017-09-20T09:14:43.899Z,3.35
2017-09-20T09:17:11.338Z,5.07
2017-09-20T09:19:38.771Z,3.40
2017-09-20T09:22:06.219Z,4.43
2017-09-20T09:24:33.647Z,7.00
2017-09-20T09:27:01.865Z,4.95
2017-09-20T09:29:29.293Z,4.95
2017-09-20T09:31:56.727Z,4.50
2017-09-20T09:34:24.994Z,4.50
2017-09-20T09:36:52.490Z,4.95
2017-09-20T09:39:20.054Z,5.03
2017-09-20T09:41:47.537Z,4.32
2017-09-20T09:44:14.971Z,3.60
2017-09-20T09:46:42.502Z,4.35
2017-09-20T09:49:09.926Z,3.17
2017-09-20T09:51:38.143Z,3.50
2017-09-20T09:54:05.624Z,3.97
2017-09-20T09:56:33.118Z,3.70
2017-09-20T09:59:01.366Z,3.60
2017-09-20T10:01:28.883Z,2.77
2017-09-20T10:03:56.323Z,3.03
2017-09-20T10:06:23.822Z,2.30
2017-09-20T10:08:52.027Z,3.58
2017-09-20T10:11:19.479Z,4.37
2017-09-20T10:13:47.062Z,3.62
2017-09-20T10:16:14.512Z,3.67
2017-09-20T10:18:41.965Z,4.90
2017-09-20T10:21:09.451Z,4.15
2017-09-20T10:23:37.009Z,3.50
2017-09-20T10:26:04.528Z,3.40
2017-09-20T10:28:31.982Z,5.35
2017-09-20T10:30:59.492Z,4.43
2017-09-20T10:33:26.916Z,3.50
2017-09-20T10:35:54.561Z,3.60
2017-09-20T10:38:21.991Z,3.70
2017-09-20T10:40:49.497Z,3.08
2017-09-20T10:43:16.968Z,3.90
2017-09-20T10:45:44.772Z,2.92
2017-09-20T10:48:12.985Z,3.70
2017-09-20T10:50:40.433Z,3.47
2017-09-20T10:53:07.894Z,3.65
2017-09-20T10:55:35.364Z,2.50
2017-09-20T10:58:02.775Z,2.80
2017-09-20T11:00:30.214Z,3.50
2017-09-20T11:02:58.426Z,3.30
2017-09-20T11:05:25.863Z,3.12
2017-09-20T11:07:53.314Z,3.40
2017-09-20T11:10:20.758Z,3.00
2017-09-20T11:12:49.018Z,3.22
2017-09-20T11:15:16.623Z,3.27
2017-09-20T11:17:44.046Z,2.75
2017-09-20T11:20:12.262Z,4.60
2017-09-20T11:22:39.697Z,2.35
2017-09-20T11:25:07.181Z,3.90
2017-09-20T11:27:34.597Z,2.72
2017-09-20T11:30:02.123Z,3.20
2017-09-20T11:32:29.561Z,3.58
2017-09-20T11:34:57.056Z,3.90
2017-09-20T11:37:24.551Z,3.72
2017-09-20T11:39:51.983Z,3.53
2017-09-20T11:42:19.428Z,4.20
2017-09-20T11:44:47.670Z,3.62
2017-09-20T11:47:15.107Z,3.50
2017-09-20T11:49:42.572Z,3.33
2017-09-20T11:52:10.007Z,4.65
2017-09-20T11:54:37.491Z,4.70
2017-09-20T11:57:04.923Z,3.00
2017-09-20T11:59:33.153Z,2.72
2017-09-20T12:02:01.358Z,4.10
2017-09-20T12:04:28.790Z,3.17
2017-09-20T12:06:56.315Z,3.10
2017-09-20T12:09:23.747Z,2.50
2017-09-20T12:11:51.226Z,2.45
2017-09-20T12:14:18.639Z,2.87
2017-09-20T12:16:46.127Z,3.60
2017-09-20T12:19:13.543Z,2.90
2017-09-20T12:21:41.034Z,3.50
2017-09-20T12:24:08.487Z,3.17
2017-09-20T12:26:35.928Z,4.05
2017-09-20T12:29:03.413Z,3.33
2017-09-20T12:31:30.871Z,2.95
2017-09-20T12:33:58.911Z,3.20
2017-09-20T12:36:26.468Z,3.10
2017-09-20T12:38:53.976Z,3.25
2017-09-20T12:41:21.395Z,2.90
2017-09-20T12:43:48.851Z,2.70
2017-09-20T12:46:16.312Z,2.90
2017-09-20T12:48:43.771Z,3.22
2017-09-20T12:51:11.225Z,2.92
2017-09-20T12:53:38.667Z,4.53
2017-09-20T12:56:06.150Z,2.92
2017-09-20T12:58:33.594Z,3.35
2017-09-20T13:01:01.023Z,4.13
2017-09-20T13:03:28.503Z,4.00
2017-09-20T13:05:56.045Z,3.30
2017-09-20T13:08:23.470Z,6.65
2017-09-20T13:10:51.670Z,3.40
2017-09-20T13:13:19.125Z,3.50
2017-09-20T13:15:46.544Z,3.85
2017-09-20T13:18:14.066Z,3.80
2017-09-20T13:20:41.497Z,4.50
2017-09-20T13:23:08.983Z,3.55
2017-09-20T13:25:36.424Z,3.90
2017-09-20T13:28:03.861Z,4.60
2017-09-20T13:30:31.338Z,4.57
2017-09-20T13:32:58.791Z,4.25
2017-09-20T13:35:26.251Z,4.62
2017-09-20T13:37:53.693Z,4.32
2017-09-20T13:40:21.181Z,3.72
2017-09-20T13:42:48.619Z,5.18
2017-09-20T13:45:16.058Z,4.60
2017-09-20T13:47:43.498Z,4.70
2017-09-20T13:50:10.943Z,4.30
2017-09-20T13:52:39.166Z,6.30
2017-09-20T13:55:06.621Z,4.72
2017-09-20T13:57:34.039Z,5.60
2017-09-20T14:00:01.495Z,4.77
2017-09-20T14:02:28.919Z,5.60
2017-09-20T14:04:56.387Z,5.20
2017-09-20T14:07:23.798Z,4.70
2017-09-20T14:09:51.249Z,4.50
2017-09-20T14:12:18.693Z,5.07
2017-09-20T14:14:46.175Z,5.37
2017-09-20T14:17:13.611Z,3.92
2017-09-20T14:19:41.056Z,4.07
2017-09-20T14:22:08.498Z,4.07
2017-09-20T14:24:36.710Z,3.87
2017-09-20T14:27:04.167Z,4.15
2017-09-20T14:29:31.736Z,4.07
2017-09-20T14:31:59.171Z,4.18
2017-09-20T14:34:26.727Z,4.00
2017-09-20T14:36:54.926Z,6.32
2017-09-20T14:39:22.379Z,5.13
2017-09-20T14:41:49.936Z,5.00
2017-09-20T14:44:17.398Z,4.50
2017-09-20T14:46:44.896Z,4.60
2017-09-20T14:49:12.327Z,4.95
2017-09-20T14:51:39.758Z,5.95
2017-09-20T14:54:07.228Z,5.97
2017-09-20T14:56:34.677Z,6.65
2017-09-20T14:59:02.138Z,6.68
2017-09-20T15:01:29.606Z,6.20
2017-09-20T15:03:57.142Z,6.50
2017-09-20T15:06:24.688Z,7.10
2017-09-20T15:08:52.120Z,6.78
2017-09-20T15:11:19.627Z,6.28
2017-09-20T15:13:47.073Z,6.72
2017-09-20T15:16:14.513Z,7.00
2017-09-20T15:18:41.939Z,7.80
2017-09-20T15:21:10.179Z,7.82
2017-09-20T15:23:39.169Z,7.60
2017-09-20T15:26:06.634Z,7.97
2017-09-20T15:28:34.167Z,7.60
2017-09-20T15:31:01.604Z,8.07
2017-09-20T15:33:29.037Z,7.15
2017-09-20T15:35:57.330Z,7.70
2017-09-20T15:38:24.864Z,7.37
2017-09-20T15:40:53.539Z,7.63
2017-09-20T15:43:20.961Z,8.07
2017-09-20T15:45:48.487Z,7.93
2017-09-20T15:48:15.976Z,8.52
2017-09-20T15:50:43.407Z,7.72
2017-09-20T15:53:10.894Z,7.87
2017-09-20T15:55:38.362Z,7.45
2017-09-20T15:58:05.799Z,7.75
2017-09-20T16:00:33.248Z,7.57
2017-09-20T16:03:00.701Z,7.83
2017-09-20T16:05:28.154Z,7.62
2017-09-20T16:07:55.597Z,6.60
2017-09-20T16:10:23.038Z,7.07
2017-09-20T16:12:51.679Z,8.40
2017-09-20T16:15:19.209Z,8.30
2017-09-20T16:17:46.786Z,7.68
2017-09-20T16:20:14.210Z,7.00
2017-09-20T16:22:41.667Z,7.40
2017-09-20T16:25:09.860Z,7.72
2017-09-20T16:27:37.327Z,8.07
2017-09-20T16:30:04.919Z,7.60
2017-09-20T16:32:32.366Z,9.87
2017-09-20T16:34:59.799Z,8.07
2017-09-20T16:37:27.486Z,7.97
2017-09-20T16:39:54.915Z,7.30
2017-09-20T16:42:22.372Z,7.97
2017-09-20T16:44:49.795Z,8.50
2017-09-20T16:47:17.238Z,7.60
2017-09-20T16:49:45.452Z,7.55
2017-09-20T16:52:12.930Z,7.80
2017-09-20T16:54:40.476Z,10.23
2017-09-20T16:57:07.911Z,8.15
2017-09-20T16:59:36.103Z,8.77
2017-09-20T17:02:03.999Z,8.25
2017-09-20T17:04:31.539Z,9.27
2017-09-20T17:06:58.963Z,8.60
2017-09-20T17:09:26.397Z,9.50
2017-09-20T17:11:53.847Z,8.52
2017-09-20T17:14:21.307Z,9.07
2017-09-20T17:16:48.752Z,9.05
2017-09-20T17:19:16.194Z,8.98
2017-09-20T17:21:44.393Z,8.82
2017-09-20T17:24:11.838Z,9.60
2017-09-20T17:26:39.332Z,8.70
2017-09-20T17:29:06.834Z,9.38
2017-09-20T17:31:35.043Z,9.48
2017-09-20T17:34:02.524Z,9.32
2017-09-20T17:36:29.955Z,8.93
2017-09-20T17:38:57.443Z,9.63
2017-09-20T17:41:24.903Z,9.30
2017-09-20T17:43:52.374Z,9.35
2017-09-20T17:46:19.814Z,9.52
2017-09-20T17:48:47.282Z,9.80
2017-09-20T17:51:14.831Z,10.27
2017-09-20T17:53:42.343Z,10.70
2017-09-20T17:56:09.813Z,10.15
2017-09-20T17:58:37.474Z,11.10
2017-09-20T18:01:04.982Z,11.20
2017-09-20T18:03:32.467Z,12.20
2017-09-20T18:06:00.763Z,11.55
2017-09-20T18:08:28.199Z,12.68
2017-09-20T18:10:55.651Z,13.07
2017-09-20T18:13:23.090Z,13.10
2017-09-20T18:15:50.543Z,13.52
2017-09-20T18:18:17.983Z,14.00
2017-09-20T18:20:46.209Z,13.23
2017-09-20T18:23:13.652Z,13.82
2017-09-20T18:25:41.093Z,13.10
2017-09-20T18:28:08.592Z,14.80
2017-09-20T18:30:36.039Z,13.52
2017-09-20T18:33:03.476Z,13.70
2017-09-20T18:35:31.724Z,13.80
2017-09-20T18:37:59.163Z,14.75
2017-09-20T18:40:27.381Z,15.02
2017-09-20T18:42:54.857Z,16.27
2017-09-20T18:45:22.324Z,15.57
2017-09-20T18:47:49.894Z,15.70
2017-09-20T18:50:17.345Z,16.33
2017-09-20T18:52:44.779Z,15.98
2017-09-20T18:55:12.323Z,16.37
2017-09-20T18:57:39.746Z,16.43
2017-09-20T19:00:08.004Z,16.85
2017-09-20T19:02:36.979Z,17.50
2017-09-20T19:05:04.460Z,18.10
2017-09-20T19:07:32.660Z,16.73
2017-09-20T19:10:00.087Z,17.83
2017-09-20T19:12:28.311Z,17.50
2017-09-20T19:14:55.796Z,17.87
2017-09-20T19:17:23.331Z,18.00
2017-09-20T19:19:50.770Z,18.62
2017-09-20T19:22:18.227Z,19.25
2017-09-20T19:24:45.723Z,20.50
2017-09-20T19:27:13.205Z,20.30
2017-09-20T19:29:41.421Z,19.80
2017-09-20T19:32:08.883Z,20.62
2017-09-20T19:34:36.337Z,19.98
2017-09-20T19:37:03.828Z,18.85
2017-09-20T19:39:31.408Z,20.10
2017-09-20T19:41:59.795Z,19.60
2017-09-20T19:44:27.266Z,21.37
2017-09-20T19:46:54.692Z,19.95
2017-09-20T19:49:22.926Z,20.90
2017-09-20T19:51:50.374Z,19.70
2017-09-20T19:54:17.819Z,21.77
2017-09-20T19:56:45.254Z,21.40
2017-09-20T19:59:12.732Z,20.73
2017-09-20T20:01:40.165Z,22.70
2017-09-20T20:04:07.716Z,20.00
2017-09-20T20:06:35.963Z,20.57
2017-09-20T20:09:03.410Z,20.88
2017-09-20T20:11:30.857Z,21.30
2017-09-20T20:13:58.884Z,22.40
2017-09-20T20:16:26.395Z,23.33
2017-09-20T20:18:53.840Z,23.27
2017-09-20T20:21:21.272Z,23.70
2017-09-20T20:23:48.730Z,24.20
2017-09-20T20:26:16.951Z,23.10
2017-09-20T20:28:44.391Z,24.42
2017-09-20T20:31:11.836Z,23.95
2017-09-20T20:33:39.271Z,25.23
2017-09-20T20:36:06.714Z,24.12
2017-09-20T20:38:34.168Z,25.00
2017-09-20T20:41:01.666Z,25.42
2017-09-20T20:43:30.067Z,24.20
2017-09-20T20:45:57.507Z,24.90
2017-09-20T20:48:24.983Z,27.00
2017-09-20T20:50:52.411Z,24.03
2017-09-20T20:53:19.864Z,25.83
2017-09-20T20:55:47.325Z,25.75
2017-09-20T20:58:14.857Z,25.37
2017-09-20T21:00:42.361Z,26.10
2017-09-20T21:03:10.595Z,24.20
2017-09-20T21:05:38.078Z,25.70
2017-09-20T21:08:05.618Z,23.58
2017-09-20T21:10:33.066Z,23.48
2017-09-20T21:13:00.502Z,25.50
2017-09-20T21:15:27.950Z,25.02
2017-09-20T21:17:55.390Z,25.20
2017-09-20T21:20:23.621Z,24.40
2017-09-20T21:22:51.058Z,24.57
2017-09-20T21:25:18.502Z,25.37
2017-09-20T21:27:45.991Z,26.37
2017-09-20T21:30:13.447Z,25.37
2017-09-20T21:32:40.942Z,25.52
2017-09-20T21:35:09.181Z,24.10
2017-09-20T21:37:36.614Z,25.40
2017-09-20T21:40:04.067Z,26.83
2017-09-20T21:42:31.498Z,26.15
2017-09-20T21:44:59.727Z,27.25
2017-09-20T21:47:27.176Z,27.27
2017-09-20T21:49:54.635Z,27.85
2017-09-20T21:52:22.078Z,27.23
2017-09-20T21:54:49.502Z,28.58
2017-09-20T21:57:16.938Z,29.75
2017-09-20T21:59:45.177Z,28.70
2017-09-20T22:02:12.614Z,29.50
2017-09-20T22:04:40.093Z,30.23
2017-09-20T22:07:07.538Z,29.00
2017-09-20T22:09:35.020Z,28.63
2017-09-20T22:12:02.671Z,29.00
2017-09-20T22:14:30.240Z,30.90
2017-09-20T22:17:09.459Z,28.33
2017-09-20T22:19:48.786Z,29.60
2017-09-20T22:22:28.159Z,29.92
2017-09-20T22:25:08.203Z,30.48
2017-09-20T22:27:35.646Z,29.45
2017-09-20T22:30:03.086Z,31.17
2017-09-20T22:32:30.567Z,30.60
2017-09-20T22:34:58.007Z,29.10
2017-09-20T22:37:25.451Z,30.45
2017-09-20T22:39:52.895Z,30.83
2017-09-20T22:42:20.375Z,30.00
2017-09-20T22:44:47.831Z,31.70
2017-09-20T22:47:15.263Z,31.80
2017-09-20T22:49:42.723Z,31.70
2017-09-20T22:52:10.193Z,33.03
2017-09-20T22:54:37.630Z,33.05
2017-09-20T22:57:05.071Z,33.05
2017-09-20T22:59:32.562Z,31.77
2017-09-20T23:02:00.034Z,32.87
2017-09-20T23:04:27.475Z,32.67
2017-09-20T23:06:54.924Z,32.67
2017-09-20T23:09:22.367Z,32.28
2017-09-20T23:11:49.798Z,32.75
2017-09-20T23:14:17.294Z,34.67
2017-09-20T23:16:44.734Z,34.40
2017-09-20T23:19:12.202Z,33.40
2017-09-20T23:21:39.634Z,35.10
2017-09-20T23:24:07.103Z,33.72
2017-09-20T23:26:34.538Z,34.95
2017-09-20T23:29:01.974Z,32.57
2017-09-20T23:31:30.189Z,35.00
2017-09-20T23:33:58.076Z,34.78
2017-09-20T23:36:25.530Z,33.85
2017-09-20T23:38:52.967Z,35.23
2017-09-20T23:41:20.407Z,34.17
2017-09-20T23:43:47.854Z,36.13
2017-09-20T23:46:15.318Z,34.83
2017-09-20T23:48:42.755Z,35.87
2017-09-20T23:51:10.954Z,33.95
2017-09-20T23:53:38.394Z,34.42
2017-09-20T23:56:05.903Z,33.42
2017-09-20T23:58:33.339Z,33.20
